BIHX weather

Hrauneyjarfoss Airport
Hrauneyjarfoss, Southern Region, Iceland

Public forecast

Using degrees Celsius for public forecast. Weather courtesy of forecast.io.

METAR (pilot weather report)

Closest report is Vestmannaeyjar Airport, 53.5 nm (99.1 km) SSW. Retrieved 2019/04/22 14:00 UTC (3 minutes ago):

BIVM 221400Z 12010KT 090V140 9999 FEW025 08/04 Q1002

TAF (pilot weather forecast)

Closest forecast is Reykjavik Airport, 69.6 nm (129.0 km) W. Retrieved 2019/04/22 15:45 UTC (0 seconds ago):

TAF BIRK 221341Z 2215/2315 35005KT 9999 BKN040 TX09/2218Z TN02/2303Z TEMPO 2215/2221 SHRA BKN020CB TEMPO 2312/2315 RA BKN018 OVC025 BECMG 2313/2315 08012KT